createdAt,value
2022-10-03T00:01:43.878Z,12.57
2022-10-03T00:04:26.625Z,15.73
2022-10-03T00:07:05.804Z,16.23
2022-10-03T00:09:57.715Z,16.37
2022-10-03T00:12:47.302Z,15.07
2022-10-03T00:15:22.136Z,16.40
2022-10-03T00:18:00.037Z,17.00
2022-10-03T00:20:56.974Z,17.40
2022-10-03T00:23:37.128Z,17.00
2022-10-03T00:26:27.640Z,18.10
2022-10-03T00:29:32.848Z,16.57
2022-10-03T00:32:14.683Z,13.47
2022-10-03T00:34:58.600Z,13.93
2022-10-03T00:37:36.710Z,14.30
2022-10-03T00:40:35.602Z,14.50
2022-10-03T00:43:45.106Z,15.07
2022-10-03T00:46:38.638Z,13.40
2022-10-03T00:49:41.604Z,19.17
2022-10-03T00:52:28.009Z,14.83
2022-10-03T00:55:10.026Z,15.17
2022-10-03T00:58:04.462Z,16.00
2022-10-03T01:00:34.513Z,17.60
2022-10-03T01:03:13.163Z,16.40
2022-10-03T01:05:55.362Z,18.07
2022-10-03T01:09:08.563Z,14.80
2022-10-03T01:11:54.040Z,18.07
2022-10-03T01:14:41.287Z,14.73
2022-10-03T01:17:17.450Z,15.23
2022-10-03T01:20:04.453Z,16.23
2022-10-03T01:23:00.715Z,18.80
2022-10-03T01:25:40.368Z,16.43
2022-10-03T01:28:58.669Z,15.13
2022-10-03T01:31:34.072Z,22.47
2022-10-03T01:34:08.965Z,21.07
2022-10-03T01:36:47.099Z,21.63
2022-10-03T01:39:22.727Z,21.17
2022-10-03T01:42:00.293Z,24.13
2022-10-03T01:44:40.695Z,24.60
2022-10-03T01:47:21.031Z,27.13
2022-10-03T01:49:56.702Z,26.10
2022-10-03T01:52:34.422Z,23.13
2022-10-03T01:55:09.407Z,24.97
2022-10-03T01:57:43.878Z,23.27
2022-10-03T02:00:17.745Z,28.83
2022-10-03T02:02:51.244Z,21.90
2022-10-03T02:05:27.755Z,26.83
2022-10-03T02:08:02.381Z,23.07
2022-10-03T02:10:42.184Z,25.23
2022-10-03T02:13:15.897Z,25.87
2022-10-03T02:15:58.599Z,24.53
2022-10-03T02:18:39.341Z,24.10
2022-10-03T02:21:15.011Z,20.43
2022-10-03T02:23:46.203Z,18.93
2022-10-03T02:26:49.100Z,22.10
2022-10-03T02:29:43.473Z,22.80
2022-10-03T02:32:45.261Z,23.83
2022-10-03T02:35:36.489Z,21.43
2022-10-03T02:38:19.080Z,20.17
2022-10-03T02:41:18.746Z,20.17
2022-10-03T02:44:15.499Z,20.20
2022-10-03T02:47:20.359Z,22.23
2022-10-03T02:50:23.367Z,23.60
2022-10-03T02:53:27.796Z,20.03
2022-10-03T02:56:31.095Z,21.03
2022-10-03T02:59:41.800Z,20.57
2022-10-03T03:02:35.523Z,19.63
2022-10-03T03:05:26.018Z,21.70
2022-10-03T03:08:25.725Z,19.73
2022-10-03T03:11:17.058Z,20.57
2022-10-03T03:14:24.312Z,21.67
2022-10-03T03:17:12.362Z,22.03
2022-10-03T03:19:56.821Z,22.00
2022-10-03T03:22:56.975Z,21.30
2022-10-03T03:25:55.457Z,21.83
2022-10-03T03:28:39.164Z,20.43
2022-10-03T03:31:13.322Z,23.37
2022-10-03T03:33:55.153Z,26.17
2022-10-03T03:36:34.241Z,27.37
2022-10-03T03:39:15.026Z,25.50
2022-10-03T03:41:56.157Z,26.33
2022-10-03T03:45:02.198Z,26.47
2022-10-03T03:47:58.392Z,25.37
2022-10-03T03:50:47.880Z,25.63
2022-10-03T03:53:39.629Z,23.53
2022-10-03T03:56:30.394Z,22.07
2022-10-03T03:59:12.779Z,24.43
2022-10-03T04:01:59.610Z,21.40
2022-10-03T04:04:40.560Z,20.37
2022-10-03T04:07:22.063Z,22.13
2022-10-03T04:10:07.285Z,21.60
2022-10-03T04:12:53.472Z,22.43
2022-10-03T04:15:52.155Z,19.70
2022-10-03T04:19:00.873Z,24.10
2022-10-03T04:22:09.414Z,27.83
2022-10-03T04:25:18.352Z,21.73
2022-10-03T04:28:07.249Z,22.60
2022-10-03T04:30:47.612Z,22.40
2022-10-03T04:33:32.410Z,21.00
2022-10-03T04:36:34.285Z,23.40
2022-10-03T04:39:11.019Z,19.53
2022-10-03T04:41:50.211Z,16.20
2022-10-03T04:44:36.866Z,21.07
2022-10-03T04:47:11.079Z,20.50
2022-10-03T04:49:45.331Z,20.63
2022-10-03T04:52:23.223Z,19.63
2022-10-03T04:55:02.478Z,20.80
2022-10-03T04:57:38.309Z,18.70
2022-10-03T05:00:23.522Z,19.17
2022-10-03T05:02:59.066Z,18.17
2022-10-03T05:05:43.661Z,18.10
2022-10-03T05:08:23.420Z,20.03
2022-10-03T05:11:08.129Z,19.33
2022-10-03T05:13:47.330Z,19.17
2022-10-03T05:16:27.600Z,17.83
2022-10-03T05:19:06.767Z,17.23
2022-10-03T05:21:41.811Z,23.27
2022-10-03T05:24:24.683Z,19.27
2022-10-03T05:27:01.785Z,20.47
2022-10-03T05:29:39.518Z,19.37
2022-10-03T05:32:21.511Z,19.00
2022-10-03T05:35:06.620Z,18.10
2022-10-03T05:37:51.626Z,19.43
2022-10-03T05:40:24.328Z,19.30
2022-10-03T05:43:28.321Z,18.27
2022-10-03T05:46:05.063Z,19.00
2022-10-03T05:48:46.640Z,17.40
2022-10-03T05:51:39.568Z,20.97
2022-10-03T05:54:42.041Z,21.40
2022-10-03T05:58:07.858Z,19.03
2022-10-03T06:00:56.177Z,20.20
2022-10-03T06:03:55.365Z,21.40
2022-10-03T06:06:34.388Z,19.43
2022-10-03T06:09:36.375Z,22.20
2022-10-03T06:12:11.721Z,21.50
2022-10-03T06:15:12.367Z,19.53
2022-10-03T06:17:57.270Z,20.70
2022-10-03T06:21:06.416Z,20.47
2022-10-03T06:24:02.474Z,17.17
2022-10-03T06:27:16.533Z,24.87
2022-10-03T06:30:08.677Z,17.63
2022-10-03T06:33:13.947Z,15.57
2022-10-03T06:36:11.592Z,19.97
2022-10-03T06:39:09.815Z,15.00
2022-10-03T06:42:20.058Z,19.07
2022-10-03T06:45:22.518Z,15.50
2022-10-03T06:48:05.766Z,14.27
2022-10-03T06:50:56.761Z,15.33
2022-10-03T06:53:55.383Z,13.53
2022-10-03T06:56:51.848Z,11.93
2022-10-03T06:59:45.800Z,13.50
2022-10-03T07:02:49.829Z,10.67
2022-10-03T07:06:11.879Z,10.03
2022-10-03T07:09:06.477Z,8.27
2022-10-03T07:12:20.196Z,8.83
2022-10-03T07:15:16.201Z,10.20
2022-10-03T07:18:19.759Z,10.40
2022-10-03T07:21:21.189Z,10.33
2022-10-03T07:24:03.775Z,10.43
2022-10-03T07:27:08.924Z,13.00
2022-10-03T07:30:08.653Z,13.83
2022-10-03T07:32:59.732Z,10.33
2022-10-03T07:36:19.760Z,10.20
2022-10-03T07:39:12.881Z,9.37
2022-10-03T07:42:03.539Z,8.97
2022-10-03T07:44:54.282Z,8.30
2022-10-03T07:47:59.862Z,8.23
2022-10-03T07:51:05.352Z,8.67
2022-10-03T07:54:25.072Z,8.07
2022-10-03T07:57:23.955Z,7.40
2022-10-03T08:00:19.754Z,8.00
2022-10-03T08:03:26.882Z,8.20
2022-10-03T08:06:16.878Z,7.03
2022-10-03T08:09:20.511Z,7.60
2022-10-03T08:12:22.405Z,7.60
2022-10-03T08:15:03.623Z,8.30
2022-10-03T08:18:32.472Z,7.20
2022-10-03T08:21:03.153Z,7.47
2022-10-03T08:24:10.951Z,7.20
2022-10-03T08:27:11.162Z,8.40
2022-10-03T08:30:20.629Z,8.37
2022-10-03T08:33:18.811Z,7.17
2022-10-03T08:36:22.781Z,8.60
2022-10-03T08:39:09.166Z,8.67
2022-10-03T08:42:18.866Z,6.93
2022-10-03T08:45:09.689Z,7.90
2022-10-03T08:48:20.655Z,6.13
2022-10-03T08:51:04.330Z,6.20
2022-10-03T08:54:09.670Z,6.03
2022-10-03T08:56:51.494Z,5.93
2022-10-03T09:00:03.294Z,6.40
2022-10-03T09:03:40.647Z,6.97
2022-10-03T09:07:05.049Z,6.23
2022-10-03T09:10:07.837Z,6.73
2022-10-03T09:13:01.076Z,6.50
2022-10-03T09:16:09.099Z,7.40
2022-10-03T09:19:08.786Z,5.85
2022-10-03T09:22:19.586Z,7.90
2022-10-03T09:25:21.100Z,7.28
2022-10-03T09:28:41.502Z,6.55
2022-10-03T09:31:26.348Z,6.63
2022-10-03T09:34:09.266Z,7.43
2022-10-03T09:37:07.227Z,7.20
2022-10-03T09:40:06.072Z,6.85
2022-10-03T09:42:56.303Z,7.25
2022-10-03T09:46:03.458Z,6.47
2022-10-03T09:48:45.908Z,7.10
2022-10-03T09:51:27.529Z,6.30
2022-10-03T09:54:48.130Z,6.80
2022-10-03T09:57:46.385Z,6.75
2022-10-03T10:00:27.828Z,6.07
2022-10-03T10:03:17.560Z,5.97
2022-10-03T10:06:14.942Z,6.10
2022-10-03T10:09:07.158Z,6.20
2022-10-03T10:12:14.289Z,5.88
2022-10-03T10:15:27.503Z,6.43
2022-10-03T10:18:39.257Z,5.88
2022-10-03T10:21:36.338Z,5.63
2022-10-03T10:24:39.934Z,5.35
2022-10-03T10:27:30.382Z,4.55
2022-10-03T10:30:22.400Z,4.80
2022-10-03T10:33:28.216Z,5.00
2022-10-03T10:36:49.703Z,4.95
2022-10-03T10:40:05.996Z,4.30
2022-10-03T10:43:18.822Z,4.63
2022-10-03T10:46:16.544Z,4.00
2022-10-03T10:49:20.855Z,4.60
2022-10-03T10:52:42.445Z,5.38
2022-10-03T10:55:55.718Z,5.80
2022-10-03T10:59:21.001Z,5.03
2022-10-03T11:02:25.959Z,4.40
2022-10-03T11:05:34.528Z,5.70
2022-10-03T11:08:36.500Z,5.45
2022-10-03T11:11:30.439Z,6.15
2022-10-03T11:14:39.633Z,5.38
2022-10-03T11:17:53.818Z,4.57
2022-10-03T11:21:04.095Z,4.10
2022-10-03T11:24:03.492Z,3.88
2022-10-03T11:27:13.738Z,3.83
2022-10-03T11:30:15.593Z,3.47
2022-10-03T11:33:21.733Z,3.85
2022-10-03T11:36:29.147Z,3.38
2022-10-03T11:39:04.908Z,5.30
2022-10-03T11:41:47.633Z,3.60
2022-10-03T11:44:23.399Z,3.50
2022-10-03T11:47:10.287Z,3.55
2022-10-03T11:49:58.827Z,4.70
2022-10-03T11:52:32.172Z,4.20
2022-10-03T11:55:15.788Z,4.28
2022-10-03T11:57:50.999Z,3.60
2022-10-03T12:00:23.156Z,3.90
2022-10-03T12:03:10.718Z,4.40
2022-10-03T12:06:13.684Z,3.80
2022-10-03T12:08:56.394Z,3.65
2022-10-03T12:11:28.520Z,3.40
2022-10-03T12:14:17.380Z,4.20
2022-10-03T12:17:06.025Z,3.80
2022-10-03T12:19:42.689Z,2.85
2022-10-03T12:22:22.972Z,2.90
2022-10-03T12:24:51.745Z,3.47
2022-10-03T12:27:32.438Z,3.80
2022-10-03T12:30:06.341Z,3.85
2022-10-03T12:32:46.280Z,3.40
2022-10-03T12:35:33.407Z,3.17
2022-10-03T12:38:26.572Z,3.80
2022-10-03T12:41:08.120Z,2.75
2022-10-03T12:43:50.863Z,2.90
2022-10-03T12:46:31.731Z,3.58
2022-10-03T12:49:06.332Z,3.67
2022-10-03T12:51:49.034Z,3.58
2022-10-03T12:54:29.210Z,3.78
2022-10-03T12:57:22.914Z,3.20
2022-10-03T13:00:01.925Z,3.38
2022-10-03T13:02:38.161Z,3.67
2022-10-03T13:05:31.925Z,3.70
2022-10-03T13:08:07.522Z,3.97
2022-10-03T13:10:41.947Z,3.25
2022-10-03T13:13:26.325Z,3.33
2022-10-03T13:16:18.444Z,3.00
2022-10-03T13:18:54.124Z,2.80
2022-10-03T13:21:45.370Z,3.58
2022-10-03T13:24:27.591Z,3.80
2022-10-03T13:27:08.229Z,3.30
2022-10-03T13:29:42.599Z,3.72
2022-10-03T13:32:17.402Z,3.60
2022-10-03T13:35:35.545Z,3.70
2022-10-03T13:38:24.061Z,3.78
2022-10-03T13:40:59.106Z,3.55
2022-10-03T13:43:35.766Z,3.42
2022-10-03T13:46:08.512Z,3.50
2022-10-03T13:48:37.718Z,3.50
2022-10-03T13:51:22.234Z,3.38
2022-10-03T13:54:05.062Z,3.35
2022-10-03T13:56:46.524Z,3.00
2022-10-03T13:59:49.301Z,3.35
2022-10-03T14:03:01.801Z,2.83
2022-10-03T14:05:51.423Z,3.20
2022-10-03T14:08:36.831Z,3.45
2022-10-03T14:11:23.414Z,3.53
2022-10-03T14:14:09.942Z,3.50
2022-10-03T14:16:42.283Z,3.28
2022-10-03T14:19:15.895Z,3.85
2022-10-03T14:22:06.578Z,3.58
2022-10-03T14:25:04.413Z,3.63
2022-10-03T14:27:44.797Z,3.40
2022-10-03T14:30:17.222Z,3.58
2022-10-03T14:32:55.692Z,3.50
2022-10-03T14:35:42.378Z,2.90
2022-10-03T14:38:23.309Z,3.20
2022-10-03T14:41:04.155Z,3.30
2022-10-03T14:43:41.098Z,3.50
2022-10-03T14:46:11.791Z,2.92
2022-10-03T14:48:44.705Z,3.10
2022-10-03T14:51:20.533Z,3.40
2022-10-03T14:53:56.886Z,3.10
2022-10-03T14:56:27.912Z,3.20
2022-10-03T14:58:58.020Z,3.20
2022-10-03T15:01:28.904Z,3.17
2022-10-03T15:04:02.881Z,3.05
2022-10-03T15:06:54.019Z,2.95
2022-10-03T15:09:26.806Z,2.80
2022-10-03T15:12:02.097Z,3.20
2022-10-03T15:14:33.920Z,3.05
2022-10-03T15:17:07.022Z,2.42
2022-10-03T15:19:44.324Z,2.90
2022-10-03T15:22:31.423Z,3.30
2022-10-03T15:25:06.363Z,2.88
2022-10-03T15:27:36.598Z,2.70
2022-10-03T15:30:07.752Z,2.63
2022-10-03T15:32:39.772Z,3.20
2022-10-03T15:35:08.569Z,3.22
2022-10-03T15:37:46.915Z,3.20
2022-10-03T15:40:24.877Z,2.90
2022-10-03T15:43:04.904Z,2.85
2022-10-03T15:45:36.539Z,3.38
2022-10-03T15:48:08.313Z,3.10
2022-10-03T15:50:41.161Z,3.20
2022-10-03T15:53:35.107Z,3.38
2022-10-03T15:56:12.359Z,3.22
2022-10-03T15:58:47.502Z,3.20
2022-10-03T16:01:21.194Z,3.40
2022-10-03T16:03:52.588Z,3.67
2022-10-03T16:06:23.432Z,3.60
2022-10-03T16:09:01.697Z,3.53
2022-10-03T16:11:34.862Z,3.30
2022-10-03T16:14:17.805Z,3.80
2022-10-03T16:16:51.381Z,3.78
2022-10-03T16:19:28.668Z,3.80
2022-10-03T16:22:09.029Z,3.97
2022-10-03T16:24:44.462Z,4.53
2022-10-03T16:27:18.470Z,4.20
2022-10-03T16:29:55.248Z,4.10
2022-10-03T16:32:26.187Z,4.75
2022-10-03T16:34:59.513Z,4.55
2022-10-03T16:37:30.786Z,4.20
2022-10-03T16:40:03.022Z,4.10
2022-10-03T16:42:41.826Z,4.50
2022-10-03T16:45:25.360Z,4.45
2022-10-03T16:48:10.032Z,4.72
2022-10-03T16:50:46.276Z,4.30
2022-10-03T16:53:16.138Z,4.88
2022-10-03T16:55:48.769Z,4.40
2022-10-03T16:58:24.310Z,4.53
2022-10-03T17:01:25.406Z,4.70
2022-10-03T17:03:52.707Z,4.95
2022-10-03T17:06:23.449Z,5.23
2022-10-03T17:08:54.501Z,4.63
2022-10-03T17:11:28.929Z,4.73
2022-10-03T17:14:03.049Z,5.13
2022-10-03T17:16:44.249Z,4.93
2022-10-03T17:19:22.234Z,5.50
2022-10-03T17:21:55.003Z,5.70
2022-10-03T17:24:32.276Z,5.47
2022-10-03T17:27:07.361Z,5.53
2022-10-03T17:29:41.930Z,7.78
2022-10-03T17:32:21.336Z,8.00
2022-10-03T17:34:56.712Z,8.23
2022-10-03T17:37:51.386Z,7.40
2022-10-03T17:40:24.129Z,9.17
2022-10-03T17:42:56.489Z,9.17
2022-10-03T17:45:34.800Z,7.97
2022-10-03T17:48:14.191Z,8.30
2022-10-03T17:50:57.726Z,8.43
2022-10-03T17:53:30.196Z,8.30
2022-10-03T17:56:02.361Z,8.80
2022-10-03T17:58:33.226Z,7.90
2022-10-03T18:01:10.107Z,7.03
2022-10-03T18:03:48.348Z,6.77
2022-10-03T18:06:39.900Z,6.57
2022-10-03T18:09:19.788Z,6.60
2022-10-03T18:11:51.239Z,6.60
2022-10-03T18:14:33.690Z,6.83
2022-10-03T18:17:08.439Z,7.13
2022-10-03T18:19:57.347Z,8.00
2022-10-03T18:22:33.546Z,8.27
2022-10-03T18:25:32.743Z,10.17
2022-10-03T18:28:24.182Z,9.13
2022-10-03T18:30:57.891Z,11.50
2022-10-03T18:33:33.331Z,10.30
2022-10-03T18:36:11.113Z,10.77
2022-10-03T18:38:42.029Z,11.07
2022-10-03T18:41:15.290Z,11.40
2022-10-03T18:43:47.209Z,13.17
2022-10-03T18:46:19.155Z,9.13
2022-10-03T18:49:30.222Z,8.83
2022-10-03T18:51:54.400Z,9.40
2022-10-03T18:54:31.379Z,9.93
2022-10-03T18:57:09.816Z,9.67
2022-10-03T18:59:47.002Z,10.00
2022-10-03T19:02:25.875Z,9.27
2022-10-03T19:04:58.037Z,9.07
2022-10-03T19:07:31.269Z,8.97
2022-10-03T19:10:24.338Z,9.73
2022-10-03T19:13:00.498Z,8.23
2022-10-03T19:15:43.955Z,9.20
2022-10-03T19:18:22.837Z,9.20
2022-10-03T19:20:54.235Z,11.33
2022-10-03T19:23:28.107Z,12.47
2022-10-03T19:26:01.012Z,11.90
2022-10-03T19:28:33.645Z,12.33
2022-10-03T19:31:06.720Z,17.23
2022-10-03T19:33:44.765Z,31.23
2022-10-03T19:36:18.574Z,25.07
2022-10-03T19:38:49.189Z,23.17
2022-10-03T19:41:28.614Z,16.80
2022-10-03T19:44:03.676Z,16.07
2022-10-03T19:46:48.963Z,20.20
2022-10-03T19:49:37.166Z,18.10
2022-10-03T19:52:17.088Z,15.17
2022-10-03T19:54:53.593Z,11.57
2022-10-03T19:57:27.750Z,10.17
2022-10-03T20:00:01.274Z,10.67
2022-10-03T20:02:31.350Z,9.97
2022-10-03T20:05:20.329Z,11.17
2022-10-03T20:07:53.366Z,10.73
2022-10-03T20:10:45.781Z,15.13
2022-10-03T20:13:15.552Z,15.60
2022-10-03T20:15:46.614Z,11.23
2022-10-03T20:18:23.156Z,11.30
2022-10-03T20:20:54.687Z,10.97
2022-10-03T20:23:25.964Z,11.40
2022-10-03T20:26:01.550Z,11.53
2022-10-03T20:28:50.580Z,12.23
2022-10-03T20:31:24.972Z,10.57
2022-10-03T20:33:55.439Z,9.10
2022-10-03T20:36:27.449Z,9.50
2022-10-03T20:39:05.730Z,9.47
2022-10-03T20:41:54.034Z,11.77
2022-10-03T20:44:48.683Z,11.43
2022-10-03T20:47:29.598Z,11.13
2022-10-03T20:50:02.846Z,12.50
2022-10-03T20:52:33.662Z,12.67
2022-10-03T20:55:06.474Z,12.53
2022-10-03T20:57:44.954Z,13.30
2022-10-03T21:00:21.074Z,14.00
2022-10-03T21:02:54.229Z,14.33
2022-10-03T21:05:26.091Z,13.47
2022-10-03T21:07:58.195Z,14.50
2022-10-03T21:10:30.990Z,14.93
2022-10-03T21:13:03.128Z,15.30
2022-10-03T21:15:40.473Z,15.73
2022-10-03T21:18:14.990Z,14.90
2022-10-03T21:20:43.302Z,15.40
2022-10-03T21:23:18.470Z,15.30
2022-10-03T21:25:47.465Z,16.60
2022-10-03T21:28:25.745Z,16.37
2022-10-03T21:31:17.894Z,19.93
2022-10-03T21:33:56.740Z,20.90
2022-10-03T21:36:32.822Z,21.57
2022-10-03T21:39:10.257Z,24.40
2022-10-03T21:41:49.555Z,22.90
2022-10-03T21:44:49.244Z,17.40
2022-10-03T21:47:32.387Z,14.70
2022-10-03T21:50:03.635Z,13.03
2022-10-03T21:52:57.178Z,13.10
2022-10-03T21:55:52.700Z,12.53
2022-10-03T21:58:43.622Z,12.83
2022-10-03T22:01:18.233Z,11.90
2022-10-03T22:03:52.951Z,11.83
2022-10-03T22:06:25.473Z,11.23
2022-10-03T22:08:54.576Z,12.60
2022-10-03T22:11:40.282Z,13.07
2022-10-03T22:14:19.634Z,14.50
2022-10-03T22:16:57.078Z,14.00
2022-10-03T22:19:34.767Z,15.87
2022-10-03T22:22:13.717Z,17.20
2022-10-03T22:25:01.609Z,16.93
2022-10-03T22:27:37.762Z,18.17
2022-10-03T22:30:09.126Z,18.27
2022-10-03T22:32:45.186Z,18.57
2022-10-03T22:35:33.506Z,20.27
2022-10-03T22:38:02.630Z,18.93
2022-10-03T22:40:32.301Z,20.43
2022-10-03T22:43:04.636Z,19.27
2022-10-03T22:45:37.005Z,19.10
2022-10-03T22:48:11.048Z,18.17
2022-10-03T22:50:41.776Z,16.93
2022-10-03T22:53:12.778Z,17.93
2022-10-03T22:55:45.197Z,18.10
2022-10-03T22:58:14.555Z,16.60
2022-10-03T23:00:46.231Z,20.03
2022-10-03T23:03:20.860Z,18.30
2022-10-03T23:06:24.901Z,18.70
2022-10-03T23:09:03.312Z,16.27
2022-10-03T23:11:34.204Z,16.80
2022-10-03T23:14:07.517Z,14.87
2022-10-03T23:16:52.952Z,15.20
2022-10-03T23:19:36.838Z,15.13
2022-10-03T23:22:10.965Z,15.13
2022-10-03T23:24:44.190Z,14.40
2022-10-03T23:27:39.359Z,12.37
2022-10-03T23:30:49.441Z,12.00
2022-10-03T23:33:19.868Z,12.60
2022-10-03T23:35:50.775Z,12.30
2022-10-03T23:38:59.544Z,12.60
2022-10-03T23:41:32.760Z,10.80
2022-10-03T23:44:01.187Z,12.40
2022-10-03T23:46:32.156Z,11.30
2022-10-03T23:49:03.382Z,11.20
2022-10-03T23:51:35.824Z,12.20
2022-10-03T23:54:06.246Z,12.80
2022-10-03T23:56:39.070Z,12.57
2022-10-03T23:59:18.467Z,12.80
